El Gouna Airport


Codes: HEGO/
Name: El Gouna Airport
City: El Gouna
Country: Egypt
Elevation: 56 ft.

Photos at El Gouna Airport


   Photos courtesy of SpottingLog. You can add your own sightings and photos by signing up for a free trial today.



No photos found.

Weather at El Gouna Airport


Time (UTC)DescriptionTempratureWindCloud coverageVisibilityPressureHumidity
23-May-2024 21:00Scattered Clouds32°C11 mph, NW37%10000m1009hPa27%
24-May-2024 00:00Few Clouds30°C11 mph, NW19%10000m1009hPa34%
24-May-2024 03:00Clear Sky27°C11 mph, NW0%10000m1010hPa45%
24-May-2024 06:00Clear Sky31°C18 mph, NW0%10000m1011hPa26%
24-May-2024 09:00Clear Sky33°C18 mph, N0%10000m1010hPa28%
24-May-2024 12:00Clear Sky34°C25 mph, N0%10000m1008hPa26%
24-May-2024 15:00Clear Sky33°C27 mph, NW0%10000m1007hPa21%
24-May-2024 18:00Clear Sky30°C25 mph, NW0%10000m1009hPa20%
24-May-2024 21:00Clear Sky29°C22 mph, NW0%10000m1009hPa23%
25-May-2024 00:00Clear Sky26°C27 mph, NW0%10000m1009hPa31%
25-May-2024 03:00Clear Sky24°C29 mph, NW0%10000m1010hPa34%
25-May-2024 06:00Clear Sky28°C27 mph, NW0%10000m1011hPa26%
25-May-2024 09:00Clear Sky32°C22 mph, N0%10000m1011hPa20%
25-May-2024 12:00Clear Sky33°C22 mph, N0%10000m1009hPa20%
25-May-2024 15:00Clear Sky32°C20 mph, N0%10000m1008hPa21%
25-May-2024 18:00Scattered Clouds29°C22 mph, NW27%10000m1009hPa23%
25-May-2024 21:00Few Clouds29°C16 mph, W16%10000m1010hPa24%
26-May-2024 00:00Clear Sky27°C20 mph, NW9%10000m1009hPa33%
26-May-2024 03:00Clear Sky25°C16 mph, NW3%10000m1010hPa35%
26-May-2024 06:00Clear Sky30°C18 mph, NW1%10000m1011hPa25%
26-May-2024 09:00Clear Sky32°C16 mph, N0%10000m1011hPa29%
26-May-2024 12:00Clear Sky33°C16 mph, NE0%10000m1009hPa26%
26-May-2024 15:00Clear Sky31°C9 mph, N0%10000m1009hPa30%
26-May-2024 18:00Clear Sky29°C4 mph, W0%10000m1010hPa29%
26-May-2024 21:00Clear Sky30°C7 mph, W0%10000m1009hPa25%
27-May-2024 00:00Clear Sky29°C4 mph, NW0%10000m1008hPa31%
27-May-2024 03:00Clear Sky25°C2 mph, E3%10000m1008hPa46%
27-May-2024 06:00Clear Sky32°C4 mph, E3%10000m1010hPa28%
27-May-2024 09:00Clear Sky36°C9 mph, E0%10000m1009hPa21%
27-May-2024 12:00Clear Sky36°C11 mph, E2%10000m1007hPa23%
27-May-2024 15:00Clear Sky35°C13 mph, SE0%10000m1006hPa24%
27-May-2024 18:00Clear Sky33°C11 mph, S0%10000m1006hPa23%
27-May-2024 21:00Clear Sky33°C4 mph, SW0%10000m1006hPa20%
28-May-2024 00:00Clear Sky26°C16 mph, NW4%10000m1007hPa49%
28-May-2024 03:00Clear Sky25°C13 mph, NW1%10000m1008hPa53%
28-May-2024 06:00Clear Sky30°C18 mph, NW2%10000m1009hPa38%
28-May-2024 09:00Clear Sky32°C20 mph, N2%10000m1008hPa43%
28-May-2024 12:00Clear Sky34°C20 mph, N1%10000m1006hPa39%
28-May-2024 15:00Clear Sky34°C20 mph, N3%10000m1006hPa33%
28-May-2024 18:00Clear Sky30°C22 mph, NW2%10000m1008hPa37%